Historyczne dane pomiarowe

Dodano dane terminowe – wersja testowa.

Dane z okresu 1951-2019

Wersja bazy: 1.34 [2019-03-16, lista zmian], aktualizacja planowana na 2019-04-15

Dane meteo z obszaru Polski uzyskane na podstawie danych udostępnionych przez Instytut Meteorologii i Gospodarki Wodnej – Państwowy Instytut Badawczy.

 

Wybierz Datę:    

       

TemperaturaWilgotnośćWiatrCiśnienieOpadyŚniegCzas trwania zjawisk
 Stacja t tx tn tng RH VA  wxwx mslp ppp RRR   cm mm wxwxwxwxwxwxwx
1999-08-14 16.4 24.0 8.6 3.6-- 1.0 0.0---- 9.5------------
1999-08-13 15.2 19.9 11.5 6.1-- 4.3 0.7---- 0.0------------
1999-08-12 16.2 19.4 13.5 11.5-- 4.7 3.0---- 0.0------------
1999-08-11 19.7 25.7 16.7 14.0-- 5.3 1.7---- 2.3------------
1999-08-10 21.8 26.8 17.5 14.1-- 0.3 1.0---- 0.0------------
1999-08-09 21.2 28.1 16.1 12.2-- 0.7 1.0---- 9.8------------
1999-08-08 23.3 30.9 18.0 14.6-- 2.7 0.3---- 1.4------------
1999-08-07 21.7 30.6 12.9 9.3-- 2.7 1.0---- 0.6------------
1999-08-06 22.4 28.6 17.7 12.1-- 0.0 1.3---- 0.0------------
1999-08-05 21.2 30.4 11.1 7.4-- 1.7 1.0---- 0.0------------
1999-08-04 19.7 30.3 9.6 5.8-- 1.7 0.3---- 0.0------------
1999-08-03 20.2 29.6 9.8 5.2-- 0.0 1.0---- 0.0------------
1999-08-02 20.1 28.6 10.6 5.0-- 0.0 0.3---- 0.0------------
1999-08-01 20.9 29.6 10.6 6.1-- 0.0 2.0---- 0.0------------
1999-07-31 21.6 29.7 12.0 7.5-- 0.0 1.0---- 0.0------------
1999-07-30 19.9 28.7 9.6 5.4-- 0.0 1.3---- 0.0------------
1999-07-29 19.2 27.9 9.9 5.0-- 0.0 2.0---- 0.0------------
1999-07-28 19.1 27.2 10.1 9.4-- 0.0 1.7---- 0.0------------
1999-07-27 17.8 24.5 11.0 6.8-- 0.0 0.7---- 0.0------------
1999-07-26 20.3 26.6 16.1 11.3-- 0.7 1.0---- 0.0------------
1999-07-25 20.9 26.7 15.5 12.1-- 2.7 0.3---- 0.0------------
1999-07-24 17.4 20.4 15.1 13.1-- 2.0 1.3---- 0.0------------
1999-07-23 17.1 21.5 14.0 10.1-- 3.3 1.3---- 0.0------------
1999-07-22 19.5 25.0 15.5 12.1-- 0.0 4.0---- 0.0------------
1999-07-21 22.6 27.9 16.9 15.1-- 0.0 0.7---- 0.0------------
1999-07-20 24.4 32.1 17.4 11.6-- 0.0 0.7---- 0.0------------
1999-07-19 24.8 33.3 14.9 10.6-- 0.0 1.0---- 0.0------------
1999-07-18 23.3 31.2 15.5 10.1-- 0.0 0.0---- 0.0------------
1999-07-17 19.6 26.1 12.6 8.1-- 1.3 0.7---- 0.0------------
1999-07-16 17.5 22.5 12.6 8.5-- 0.7 0.0---- 0.5------------
1999-07-15 17.5 22.4 13.8 10.6-- 5.0 1.0---- 0.0------------
1999-07-14 21.3 25.1 19.0 15.2-- 5.3 2.3---- 1.2------------
1999-07-13 23.4 30.5 17.1 13.2-- 1.7 1.0---- 0.0------------
1999-07-12 22.9 30.7 15.1 11.8-- 3.3 1.3---- 0.1------------
1999-07-11 21.4 28.6 12.6 11.5-- 2.0 3.7---- 0.0------------
1999-07-10 21.1 28.1 13.8 10.9-- 0.0 4.0---- 0.0------------
1999-07-09 20.1 26.6 15.0 12.6-- 2.0 1.3---- 0.0------------
1999-07-08 17.8 22.0 15.1 10.9-- 6.0 1.0---- 4.0------------
1999-07-07 18.0 22.9 15.8 13.6-- 8.0 1.0---- 3.1------------
1999-07-06 22.8 29.6 18.6 15.0-- 0.0 1.3---- 10.5------------
1999-07-05 25.8 34.9 16.6 12.9-- 0.0 2.3---- 0.3------------
1999-07-04 23.6 30.1 19.0 15.0-- 0.0 1.3---- 0.0------------
1999-07-03 21.6 27.6 16.0 10.8-- 0.0 0.3---- 0.0------------
1999-07-02 18.3 23.0 13.8 10.6-- 3.0 0.7---- 0.8------------
1999-07-01 19.2 23.5 16.9 13.6-- 2.7 0.7---- 2.1------------
1999-06-30 21.8 28.4 16.2 9.6-- 0.7 1.3---- 17.4------------
1999-06-29 19.0 24.5 12.1 6.1-- 0.0 1.3---- 0.0------------
1999-06-28 21.1 27.1 16.8 13.1-- 0.0 1.3---- 0.0------------
1999-06-27 20.0 26.6 12.6 7.9-- 2.0 0.7---- 0.0------------
1999-06-26 14.3 21.0 6.0 1.8-- 0.0 0.3---- 0.0------------
1999-06-25 13.3 18.4 8.6 2.7-- 0.0 0.0---- 4.5------------
1999-06-24 12.5 19.8 5.0 0.5-- 2.7 0.3---- 2.4------------
1999-06-23 13.5 18.4 9.8 7.1-- 0.0 1.3---- 0.0------------
1999-06-22 11.8 14.9 9.7 3.4-- 8.0 2.0---- 8.8------------
1999-06-21 15.9 22.0 11.4 10.0-- 5.3 0.7---- 1.8------------
1999-06-20 18.3 23.9 11.6 5.7-- 0.0 1.3---- 0.2------------
1999-06-19 16.9 21.9 12.6 9.9-- 5.3 0.7---- 0.0------------
1999-06-18 18.2 23.0 14.6 10.5-- 4.7 2.7---- 0.0------------
1999-06-17 19.3 24.4 14.7 11.1-- 3.7 0.3---- 0.0------------
1999-06-16 16.6 22.2 10.5 4.5-- 8.0 0.7---- 0.0------------
305.1 ms

 

Źródłem pochodzenia danych jest Instytut Meteorologii i Gospodarki Wodnej – Państwowy Instytut Badawczy. Dane Instytutu Meteorologii i Gospodarki Wodnej – Państwowego Instytutu Badawczego zostały przetworzone.

Dane źródłowe można odnaleźć na stronie https://dane.imgw.pl